Time;durP1;ratioP1;P1;durP2;ratioP2;P2;SDS_P1;SDS_P2;PMS_P1;PMS_P2;Temp;Humidity;BMP_temperature;BMP_pressure;BME280_temperature;BME280_humidity;BME280_pressure;Samples;Min_cycle;Max_cycle;Signal;HPM_P1;HPM_P2
2022/12/02 00:00:23;;;;;;;3.57;3.03;;;;;;;6.42;nan;-23996.06;5030997;28;20168;-75
2022/12/02 00:02:49;;;;;;;7.10;2.87;;;;;;;6.23;nan;-23990.81;5030606;28;20227;-74
2022/12/02 00:05:14;;;;;;;6.50;3.23;;;;;;;6.36;nan;-23994.50;5031251;28;20241;-75
2022/12/02 00:07:41;;;;;;;6.17;3.53;;;;;;;6.02;nan;-23984.84;5031032;28;20182;-75
2022/12/02 00:10:24;;;;;;;5.17;4.07;;;;;;;6.49;nan;-23998.19;5030927;28;20179;-74
2022/12/02 00:12:51;;;;;;;5.57;3.40;;;;;;;6.55;nan;-23999.75;5031316;28;20171;-75
2022/12/02 00:15:44;;;;;;;6.77;4.07;;;;;;;6.46;nan;-23997.19;5031297;28;20168;-74
2022/12/02 00:18:12;;;;;;;8.47;4.97;;;;;;;6.34;nan;-23993.78;5031098;28;20176;-74
2022/12/02 00:20:37;;;;;;;5.90;3.73;;;;;;;6.36;nan;-23994.34;5031271;28;20531;-75
2022/12/02 00:23:04;;;;;;;5.23;2.83;;;;;;;6.29;nan;-23992.38;5029951;28;20186;-75
2022/12/02 00:25:30;;;;;;;8.10;4.23;;;;;;;6.09;nan;-23986.84;5034115;28;20167;-75
2022/12/02 00:27:56;;;;;;;6.43;4.03;;;;;;;6.39;nan;-23995.22;5034604;28;20636;-75
2022/12/02 00:30:21;;;;;;;7.30;4.33;;;;;;;6.16;nan;-23988.81;5034266;28;20214;-75
2022/12/02 00:32:47;;;;;;;6.53;4.90;;;;;;;6.01;nan;-23984.56;5034584;28;20172;-74
2022/12/02 00:35:12;;;;;;;9.93;4.63;;;;;;;6.33;nan;-23993.50;5034727;28;20199;-74
2022/12/02 00:37:38;;;;;;;7.00;4.10;;;;;;;6.10;nan;-23987.13;5034652;28;20240;-74
2022/12/02 00:40:04;;;;;;;5.87;4.60;;;;;;;6.24;nan;-23991.09;5034240;28;20681;-75
2022/12/02 00:42:29;;;;;;;10.37;5.47;;;;;;;6.47;nan;-23997.47;5034582;28;20210;-75
2022/12/02 00:47:39;;;;;;;5.70;3.87;;;;;;;6.40;nan;-23995.50;5034046;28;20174;-74
2022/12/02 00:50:05;;;;;;;7.20;3.43;;;;;;;6.22;nan;-23990.66;5034936;28;20254;-74
2022/12/02 00:52:31;;;;;;;7.30;3.83;;;;;;;6.34;nan;-23993.94;5038140;28;20171;-74
2022/12/02 00:54:56;;;;;;;5.93;3.43;;;;;;;6.13;nan;-23988.13;5036058;28;20182;-74
2022/12/02 00:57:21;;;;;;;7.50;4.53;;;;;;;6.10;nan;-23987.13;5034288;28;20536;-74
2022/12/02 00:59:47;;;;;;;6.00;4.20;;;;;;;6.13;nan;-23988.13;5034183;28;20203;-75
2022/12/02 01:02:12;;;;;;;6.53;3.80;;;;;;;6.08;nan;-23986.69;5033346;28;20325;-74
2022/12/02 01:04:37;;;;;;;8.40;4.17;;;;;;;6.06;nan;-23986.13;5033909;28;20627;-75
2022/12/02 01:07:03;;;;;;;6.87;4.03;;;;;;;5.97;nan;-23983.41;5033938;28;20199;-75
2022/12/02 01:09:28;;;;;;;4.27;3.63;;;;;;;6.26;nan;-23991.53;5033624;28;20186;-74
2022/12/02 01:11:53;;;;;;;6.57;4.13;;;;;;;6.27;nan;-23991.81;5032296;28;20662;-74
2022/12/02 01:14:19;;;;;;;6.47;3.90;;;;;;;6.33;nan;-23993.66;5033668;28;20177;-75
2022/12/02 01:16:45;;;;;;;8.90;4.87;;;;;;;5.89;nan;-23981.16;5032310;28;20175;-75
2022/12/02 01:19:10;;;;;;;7.23;4.33;;;;;;;5.85;nan;-23980.16;5033176;28;20213;-75
2022/12/02 01:21:35;;;;;;;5.87;4.30;;;;;;;6.00;nan;-23984.41;5033843;28;20205;-74
2022/12/02 01:24:01;;;;;;;8.37;4.47;;;;;;;6.21;nan;-23990.38;5033538;28;20266;-75
2022/12/02 01:26:26;;;;;;;7.60;4.87;;;;;;;6.38;nan;-23994.94;5033560;28;20183;-74
2022/12/02 01:28:51;;;;;;;8.47;5.47;;;;;;;6.39;nan;-23995.22;5033279;28;20171;-74
2022/12/02 01:31:17;;;;;;;8.47;5.23;;;;;;;6.17;nan;-23989.25;5033613;28;20219;-75
2022/12/02 01:33:42;;;;;;;7.97;4.07;;;;;;;5.98;nan;-23983.84;5030572;28;20195;-74
2022/12/02 01:36:08;;;;;;;10.00;4.83;;;;;;;6.28;nan;-23992.22;5032669;28;20171;-74
2022/12/02 01:38:33;;;;;;;6.93;4.03;;;;;;;6.12;nan;-23987.81;5033256;28;20199;-74
2022/12/02 01:41:00;;;;;;;7.03;4.27;;;;;;;4.89;nan;-23953.28;5032514;28;20194;-75
2022/12/02 01:43:25;;;;;;;7.97;4.13;;;;;;;5.93;nan;-23982.28;5032785;28;20257;-74
2022/12/02 01:45:51;;;;;;;4.10;3.30;;;;;;;6.30;nan;-23992.66;5032497;28;20632;-74
2022/12/02 01:48:17;;;;;;;6.03;4.77;;;;;;;5.73;nan;-23976.75;5033191;28;20183;-74
2022/12/02 01:50:43;;;;;;;6.07;4.23;;;;;;;6.05;nan;-23985.84;5032046;28;20168;-74
2022/12/02 01:53:08;;;;;;;10.23;4.03;;;;;;;6.11;nan;-23987.53;5031587;28;20190;-75
2022/12/02 01:55:34;;;;;;;7.33;4.13;;;;;;;5.91;nan;-23981.72;5032334;28;20174;-75
2022/12/02 01:57:59;;;;;;;6.30;3.80;;;;;;;6.34;nan;-23993.78;5031790;28;20183;-75
2022/12/02 02:00:26;;;;;;;4.27;3.47;;;;;;;5.94;nan;-23982.72;5032732;28;20180;-74
2022/12/02 02:02:52;;;;;;;9.27;4.13;;;;;;;5.94;nan;-23982.56;5032529;28;20223;-74
2022/12/02 02:05:24;;;;;;;5.97;4.20;;;;;;;6.34;nan;-23993.78;5032615;28;20263;-75
2022/12/02 02:07:53;;;;;;;7.27;4.43;;;;;;;6.42;nan;-23996.06;5033134;28;20175;-75
2022/12/02 02:10:20;;;;;;;5.97;3.80;;;;;;;6.45;nan;-23997.06;5032370;28;20276;-74
2022/12/02 02:12:46;;;;;;;7.23;4.53;;;;;;;6.20;nan;-23990.09;5032198;28;20561;-75
2022/12/02 02:15:14;;;;;;;8.03;4.20;;;;;;;5.97;nan;-23983.56;5032426;28;20164;-74
2022/12/02 02:17:39;;;;;;;3.87;3.40;;;;;;;6.38;nan;-23994.94;5032731;28;20192;-74
2022/12/02 02:20:09;;;;;;;6.93;4.73;;;;;;;6.26;nan;-23991.66;5032377;28;20199;-74
2022/12/02 02:22:44;;;;;;;5.37;3.63;;;;;;;6.25;nan;-23991.22;5032863;28;20171;-75
2022/12/02 02:25:15;;;;;;;6.77;3.63;;;;;;;6.29;nan;-23992.38;5032493;28;20202;-75
2022/12/02 02:27:44;;;;;;;4.40;3.67;;;;;;;6.05;nan;-23985.84;5032451;28;20194;-73
2022/12/02 02:30:10;;;;;;;7.27;4.33;;;;;;;6.19;nan;-23989.81;5031897;28;20159;-75
2022/12/02 02:32:36;;;;;;;9.23;3.73;;;;;;;6.00;nan;-23984.41;5032531;28;20262;-75
2022/12/02 02:35:03;;;;;;;5.03;4.07;;;;;;;6.33;nan;-23993.66;5032301;28;20274;-74
2022/12/02 02:37:29;;;;;;;7.73;4.87;;;;;;;6.25;nan;-23991.22;5031584;28;20258;-74
2022/12/02 02:39:54;;;;;;;6.20;4.20;;;;;;;2.15;nan;-23875.88;5032058;28;20632;-75
2022/12/02 02:42:19;;;;;;;5.53;3.50;;;;;;;6.06;nan;-23986.13;5031838;28;20171;-75
2022/12/02 02:44:45;;;;;;;5.00;3.70;;;;;;;6.36;nan;-23994.34;5032174;28;20171;-74
2022/12/02 02:47:10;;;;;;;5.90;4.73;;;;;;;6.43;nan;-23996.50;5030851;28;20164;-75
2022/12/02 02:49:36;;;;;;;6.93;3.80;;;;;;;6.40;nan;-23995.63;5031576;28;20592;-75
2022/12/02 02:52:02;;;;;;;7.53;4.47;;;;;;;5.98;nan;-23983.72;5030215;28;20164;-75
2022/12/02 02:54:27;;;;;;;9.00;4.07;;;;;;;6.36;nan;-23994.50;5032054;28;20167;-75
2022/12/02 02:56:53;;;;;;;6.97;4.07;;;;;;;6.41;nan;-23995.91;5032089;28;20171;-75
2022/12/02 02:59:18;;;;;;;9.37;4.70;;;;;;;6.26;nan;-23991.53;5031646;28;20195;-75
2022/12/02 03:01:46;;;;;;;7.33;3.33;;;;;;;6.39;nan;-23995.22;5031911;28;20219;-75
2022/12/02 03:04:16;;;;;;;6.87;3.67;;;;;;;6.00;nan;-23984.41;5032190;28;20171;-74
2022/12/02 03:06:43;;;;;;;5.07;3.40;;;;;;;6.02;nan;-23984.84;5031482;28;20547;-76
2022/12/02 03:09:12;;;;;;;6.57;3.63;;;;;;;6.44;nan;-23996.63;5011306;28;20216;-75
2022/12/02 03:11:39;;;;;;;7.53;4.13;;;;;;;6.12;nan;-23987.81;5027301;28;20230;-74
2022/12/02 03:14:06;;;;;;;11.57;5.63;;;;;;;6.40;nan;-23995.63;5011288;28;20168;-74
2022/12/02 03:16:32;;;;;;;9.10;4.23;;;;;;;6.06;nan;-23986.13;5011900;28;20173;-75
2022/12/02 03:18:59;;;;;;;9.93;4.57;;;;;;;6.09;nan;-23986.84;5011746;28;20203;-76
2022/12/02 03:21:25;;;;;;;7.30;4.50;;;;;;;6.32;nan;-23993.38;5013029;28;20184;-75
2022/12/02 03:23:54;;;;;;;8.73;5.03;;;;;;;6.10;nan;-23987.25;5012118;28;20314;-75
2022/12/02 03:26:19;;;;;;;10.20;4.80;;;;;;;6.28;nan;-23992.09;5011577;28;20202;-75
2022/12/02 03:28:46;;;;;;;17.80;4.50;;;;;;;6.42;nan;-23996.06;5011822;28;20636;-74
2022/12/02 03:31:13;;;;;;;11.23;4.13;;;;;;;6.08;nan;-23986.69;5012141;28;20180;-74
2022/12/02 03:33:40;;;;;;;6.97;4.00;;;;;;;6.41;nan;-23995.78;5011375;28;20559;-75
2022/12/02 03:36:06;;;;;;;9.33;4.60;;;;;;;6.08;nan;-23986.56;5011694;28;20194;-75
2022/12/02 03:38:32;;;;;;;4.57;3.93;;;;;;;5.95;nan;-23982.84;5010904;28;20207;-75
2022/12/02 03:41:01;;;;;;;8.47;4.80;;;;;;;5.39;nan;-23967.22;5011858;28;20180;-75
2022/12/02 03:43:26;;;;;;;7.13;4.80;;;;;;;6.26;nan;-23991.66;5011866;28;20608;-74
2022/12/02 03:45:52;;;;;;;7.23;4.80;;;;;;;6.11;nan;-23987.53;5011925;28;20183;-74
2022/12/02 03:48:20;;;;;;;8.47;4.33;;;;;;;6.40;nan;-23995.63;5011902;28;20181;-74
2022/12/02 03:50:48;;;;;;;6.90;3.83;;;;;;;6.24;nan;-23991.09;5011567;28;20593;-75
2022/12/02 03:53:13;;;;;;;8.30;4.03;;;;;;;6.00;nan;-23984.28;5011723;28;20662;-75
2022/12/02 03:55:39;;;;;;;8.37;4.57;;;;;;;6.45;nan;-23996.91;5010769;28;20266;-75
2022/12/02 03:58:06;;;;;;;8.63;4.13;;;;;;;6.42;nan;-23996.22;5012741;28;20479;-74
2022/12/02 04:00:35;;;;;;;8.10;4.70;;;;;;;6.05;nan;-23985.69;5015566;28;20199;-75
2022/12/02 04:03:01;;;;;;;6.23;4.20;;;;;;;6.39;nan;-23995.22;5015501;28;20246;-75
2022/12/02 04:05:26;;;;;;;6.90;4.53;;;;;;;6.35;nan;-23994.22;5015704;28;20834;-74
2022/12/02 04:07:52;;;;;;;8.47;4.23;;;;;;;6.27;nan;-23991.81;5015525;28;20257;-75
2022/12/02 04:10:17;;;;;;;7.87;5.33;;;;;;;6.42;nan;-23996.06;5015406;28;20184;-74
2022/12/02 04:12:43;;;;;;;9.90;4.67;;;;;;;6.39;nan;-23995.22;5015252;28;20176;-74
2022/12/02 04:15:09;;;;;;;5.80;4.00;;;;;;;6.30;nan;-23992.78;5014921;28;20176;-75
2022/12/02 04:17:34;;;;;;;13.93;4.37;;;;;;;6.35;nan;-23994.06;5035791;28;20172;-75
2022/12/02 04:19:59;;;;;;;6.00;3.23;;;;;;;6.48;nan;-23997.75;5036741;28;20234;-76
2022/12/02 04:22:25;;;;;;;5.73;3.60;;;;;;;6.11;nan;-23987.53;5037963;28;20189;-74
2022/12/02 04:24:50;;;;;;;4.00;3.13;;;;;;;6.12;nan;-23987.81;5038176;28;20233;-75
2022/12/02 04:27:16;;;;;;;5.80;3.73;;;;;;;6.14;nan;-23988.41;5036958;28;20182;-75
2022/12/02 04:29:41;;;;;;;5.37;3.50;;;;;;;6.07;nan;-23986.41;5036607;28;20179;-74
2022/12/02 04:32:07;;;;;;;4.43;3.30;;;;;;;6.34;nan;-23993.78;5037686;28;20233;-75
2022/12/02 04:34:32;;;;;;;6.10;3.67;;;;;;;6.32;nan;-23993.22;5036999;28;20174;-75
2022/12/02 04:36:57;;;;;;;7.73;4.53;;;;;;;6.48;nan;-23997.91;5037264;28;20191;-76
2022/12/02 04:39:23;;;;;;;6.30;3.13;;;;;;;6.02;nan;-23984.97;5037910;28;20203;-75
2022/12/02 04:41:48;;;;;;;5.07;3.47;;;;;;;6.00;nan;-23984.28;5037042;28;20194;-75
2022/12/02 04:44:14;;;;;;;7.20;4.53;;;;;;;6.14;nan;-23988.25;5036390;28;20182;-75
2022/12/02 04:46:39;;;;;;;6.60;4.20;;;;;;;6.37;nan;-23994.78;5041244;28;20179;-74
2022/12/02 04:49:05;;;;;;;6.83;3.97;;;;;;;6.09;nan;-23986.84;5040059;28;20190;-74
2022/12/02 04:51:31;;;;;;;6.17;4.10;;;;;;;6.44;nan;-23996.63;5037605;28;20195;-75
2022/12/02 04:53:57;;;;;;;6.07;3.67;;;;;;;6.37;nan;-23994.66;5036486;28;20282;-74
2022/12/02 04:56:23;;;;;;;10.23;4.83;;;;;;;6.60;nan;-24001.31;5037217;28;20179;-74
2022/12/02 04:58:48;;;;;;;8.57;3.67;;;;;;;6.42;nan;-23996.06;5037431;28;20248;-74
2022/12/02 05:01:13;;;;;;;8.50;4.77;;;;;;;6.53;nan;-23999.31;5036374;28;20212;-75
2022/12/02 05:03:39;;;;;;;6.43;3.83;;;;;;;6.51;nan;-23998.75;5037496;28;20183;-75
2022/12/02 05:06:04;;;;;;;6.40;4.10;;;;;;;6.15;nan;-23988.53;5035155;28;20195;-75
2022/12/02 05:08:30;;;;;;;3.77;3.00;;;;;;;6.45;nan;-23996.91;5035739;28;20269;-74
2022/12/02 05:10:55;;;;;;;11.37;3.87;;;;;;;6.09;nan;-23986.97;5036345;28;20235;-75
2022/12/02 05:13:21;;;;;;;8.07;3.70;;;;;;;6.29;nan;-23992.38;5035486;28;20183;-75
2022/12/02 05:15:46;;;;;;;6.80;3.90;;;;;;;6.41;nan;-23995.78;5036454;28;20179;-75
2022/12/02 05:18:12;;;;;;;8.23;4.03;;;;;;;6.32;nan;-23993.22;5036023;28;20182;-75
2022/12/02 05:20:37;;;;;;;4.50;3.33;;;;;;;6.11;nan;-23987.53;5039285;28;20273;-75
2022/12/02 05:23:03;;;;;;;5.40;3.63;;;;;;;6.07;nan;-23986.41;5034322;28;20320;-76
2022/12/02 05:25:28;;;;;;;7.53;3.77;;;;;;;6.11;nan;-23987.41;5035213;28;20179;-75
2022/12/02 05:27:54;;;;;;;6.73;3.80;;;;;;;6.14;nan;-23988.25;5033103;28;20202;-75
2022/12/02 05:30:20;;;;;;;8.33;4.40;;;;;;;6.35;nan;-23994.06;5032682;28;20180;-76
2022/12/02 05:32:45;;;;;;;6.97;4.47;;;;;;;6.14;nan;-23988.25;5032687;28;20577;-75
2022/12/02 05:35:11;;;;;;;10.40;4.10;;;;;;;6.32;nan;-23993.38;5032479;28;20255;-75
2022/12/02 05:37:36;;;;;;;8.30;4.47;;;;;;;6.17;nan;-23989.09;5031110;28;20175;-74
2022/12/02 05:40:02;;;;;;;11.93;4.93;;;;;;;6.17;nan;-23989.25;5031629;28;20202;-76
2022/12/02 05:42:27;;;;;;;11.03;5.67;;;;;;;6.45;nan;-23997.06;5032712;28;20203;-75
2022/12/02 05:44:54;;;;;;;4.60;3.13;;;;;;;6.23;nan;-23990.81;5032857;28;20186;-75
2022/12/02 05:47:26;;;;;;;8.77;5.43;;;;;;;6.24;nan;-23990.94;5033054;28;20168;-74
2022/12/02 05:49:52;;;;;;;4.37;3.77;;;;;;;6.32;nan;-23993.38;5032914;28;20175;-75
2022/12/02 05:52:26;;;;;;;7.57;3.70;;;;;;;5.83;nan;-23979.59;5033176;28;20190;-75
2022/12/02 05:54:58;;;;;;;8.80;4.37;;;;;;;6.32;nan;-23993.38;5033226;28;20207;-74
2022/12/02 05:57:27;;;;;;;7.67;4.23;;;;;;;6.40;nan;-23995.50;5032482;28;20164;-74
2022/12/02 06:00:07;;;;;;;5.60;3.23;;;;;;;6.69;nan;-24003.59;5032670;28;20658;-77
2022/12/02 06:02:37;;;;;;;8.40;3.83;;;;;;;6.53;nan;-23999.31;5032729;28;20273;-77
2022/12/02 06:05:14;;;;;;;5.93;3.77;;;;;;;6.72;nan;-24004.44;5032692;28;20261;-76
2022/12/02 06:07:39;;;;;;;8.07;3.53;;;;;;;6.72;nan;-24004.56;5032675;28;20163;-77
2022/12/02 06:10:37;;;;;;;8.53;4.40;;;;;;;6.59;nan;-24001.03;5032366;28;20685;-79
2022/12/02 06:13:20;;;;;;;6.40;4.10;;;;;;;6.72;nan;-24004.56;5031966;28;20301;-77
2022/12/02 06:15:46;;;;;;;6.47;4.43;;;;;;;6.79;nan;-24006.44;5032810;28;20607;-75
2022/12/02 06:18:19;;;;;;;11.40;4.80;;;;;;;6.50;nan;-23998.34;5030800;28;20214;-75
2022/12/02 06:20:50;;;;;;;9.50;5.00;;;;;;;6.83;nan;-24007.69;5031736;28;20186;-76
2022/12/02 06:23:18;;;;;;;3.93;3.50;;;;;;;6.95;nan;-24010.97;5031941;28;20183;-76
2022/12/02 06:25:44;;;;;;;8.87;4.10;;;;;;;6.95;nan;-24010.97;5032496;28;20642;-76
2022/12/02 06:28:15;;;;;;;8.37;5.10;;;;;;;7.07;nan;-24014.38;5028560;28;20183;-76
2022/12/02 06:31:16;;;;;;;8.33;4.17;;;;;;;7.06;nan;-24014.22;5030262;28;20171;-77
2022/12/02 06:33:44;;;;;;;7.80;4.23;;;;;;;7.00;nan;-24012.53;5023870;28;20178;-77
2022/12/02 06:36:24;;;;;;;5.60;4.00;;;;;;;7.15;nan;-24016.50;5028323;28;20262;-76
2022/12/02 06:38:59;;;;;;;9.53;4.43;;;;;;;6.92;nan;-24010.25;5027780;28;20191;-77
2022/12/02 06:41:28;;;;;;;10.97;4.53;;;;;;;7.05;nan;-24013.94;5029535;28;20182;-78
2022/12/02 06:46:42;;;;;;;7.60;5.43;;;;;;;7.19;nan;-24017.63;5030070;28;20654;-80
2022/12/02 06:49:29;;;;;;;7.50;4.70;;;;;;;7.06;nan;-24014.09;5031195;28;20284;-78
2022/12/02 06:51:57;;;;;;;11.30;4.03;;;;;;;7.28;nan;-24020.31;5032645;28;20224;-78
2022/12/02 06:54:27;;;;;;;8.50;3.97;;;;;;;7.59;nan;-24028.81;5030954;28;20175;-79
2022/12/02 06:56:54;;;;;;;7.93;4.27;;;;;;;7.55;nan;-24027.84;5031025;28;20187;-77
2022/12/02 06:59:22;;;;;;;7.70;4.67;;;;;;;7.07;nan;-24014.50;5030067;28;20191;-78
2022/12/02 07:01:51;;;;;;;7.13;4.00;;;;;;;7.79;nan;-24034.50;5031440;28;20308;-75
2022/12/02 07:04:31;;;;;;;9.60;4.83;;;;;;;7.47;nan;-24025.56;5030348;28;20172;-77
2022/12/02 07:07:34;;;;;;;9.10;4.80;;;;;;;7.92;nan;-24038.19;5031080;28;20159;-76
2022/12/02 07:10:03;;;;;;;6.30;3.90;;;;;;;7.40;nan;-24023.59;5008924;28;20190;-77
2022/12/02 07:12:31;;;;;;;7.10;3.77;;;;;;;7.92;nan;-24038.19;5026837;28;20187;-76
2022/12/02 07:15:02;;;;;;;8.23;3.83;;;;;;;7.71;nan;-24032.38;5029866;28;20186;-77
2022/12/02 07:17:40;;;;;;;5.63;3.33;;;;;;;7.64;nan;-24030.25;5030910;28;20175;-77
2022/12/02 07:20:06;;;;;;;8.67;4.67;;;;;;;7.92;nan;-24038.31;5030709;28;20392;-78
2022/12/02 07:22:47;;;;;;;7.73;3.83;;;;;;;7.42;nan;-24024.16;5031099;28;20249;-77
2022/12/02 07:25:15;;;;;;;8.57;4.17;;;;;;;8.03;nan;-24041.28;5030708;28;20160;-76
2022/12/02 07:27:44;;;;;;;4.97;3.30;;;;;;;7.92;nan;-24038.19;5030968;28;20203;-78
2022/12/02 07:30:26;;;;;;;7.03;4.00;;;;;;;8.13;nan;-24044.13;5028340;28;20178;-76
2022/12/02 07:32:52;;;;;;;11.67;3.97;;;;;;;8.14;nan;-24044.41;5030897;28;20277;-79
2022/12/02 07:35:18;;;;;;;6.23;4.13;;;;;;;8.19;nan;-24045.69;5033947;28;20193;-78
2022/12/02 07:37:43;;;;;;;10.00;4.10;;;;;;;8.16;nan;-24044.84;5034346;28;20203;-77
2022/12/02 07:40:11;;;;;;;10.38;4.32;;;;;;;8.41;nan;-24051.91;5033141;28;20708;-76
2022/12/02 07:42:36;;;;;;;8.25;4.32;;;;;;;8.32;nan;-24049.38;5034598;28;20175;-77
2022/12/02 07:45:02;;;;;;;15.77;5.80;;;;;;;8.48;nan;-24053.91;5034565;28;20722;-76
2022/12/02 07:47:27;;;;;;;9.70;5.28;;;;;;;8.92;nan;-24066.22;5034089;28;20221;-77
2022/12/02 07:49:53;;;;;;;11.13;5.18;;;;;;;8.81;nan;-24063.25;5032922;28;20206;-79
2022/12/02 07:52:18;;;;;;;7.60;3.88;;;;;;;9.05;nan;-24069.75;5035003;28;20159;-75
2022/12/02 07:54:44;;;;;;;7.32;3.92;;;;;;;9.12;nan;-24071.72;5033334;28;20262;-75
2022/12/02 07:57:09;;;;;;;9.10;4.25;;;;;;;9.37;nan;-24078.78;5033239;28;20172;-76
2022/12/02 07:59:34;;;;;;;13.50;4.85;;;;;;;9.17;nan;-24073.13;5033188;28;20191;-76
2022/12/02 08:02:00;;;;;;;6.90;3.85;;;;;;;9.61;nan;-24085.56;5034869;28;20238;-78
2022/12/02 08:04:25;;;;;;;8.18;5.15;;;;;;;9.52;nan;-24083.03;5034900;28;20175;-75
2022/12/02 08:06:51;;;;;;;10.18;4.43;;;;;;;9.77;nan;-24090.09;5033412;28;20678;-77
2022/12/02 08:09:16;;;;;;;8.98;4.15;;;;;;;9.77;nan;-24090.09;5033473;28;20179;-75
2022/12/02 08:11:41;;;;;;;5.90;4.10;;;;;;;9.86;nan;-24092.34;5034851;28;20180;-76
2022/12/02 08:14:07;;;;;;;6.53;3.40;;;;;;;9.99;nan;-24096.16;5034667;28;20661;-76
2022/12/02 08:16:32;;;;;;;8.45;4.20;;;;;;;9.60;nan;-24085.16;5033319;28;20180;-77
2022/12/02 08:19:00;;;;;;;7.28;3.65;;;;;;;9.72;nan;-24088.69;5034626;28;20639;-75
2022/12/02 08:21:26;;;;;;;8.65;4.32;;;;;;;9.54;nan;-24083.59;5035387;28;20176;-77
2022/12/02 08:23:51;;;;;;;5.38;3.20;;;;;;;9.60;nan;-24085.28;5033910;28;20191;-76
2022/12/02 08:26:17;;;;;;;6.72;3.45;;;;;;;9.66;nan;-24086.84;5034710;28;20591;-76
2022/12/02 08:28:42;;;;;;;6.55;3.35;;;;;;;9.43;nan;-24080.50;5034379;28;20194;-76
2022/12/02 08:31:07;;;;;;;5.68;3.47;;;;;;;9.71;nan;-24088.25;5034883;28;20164;-76
2022/12/02 08:33:33;;;;;;;6.13;3.17;;;;;;;9.68;nan;-24087.56;5033157;28;20233;-76
2022/12/02 08:35:58;;;;;;;7.15;4.07;;;;;;;9.64;nan;-24086.28;5041240;28;20630;-74
2022/12/02 08:38:24;;;;;;;5.50;3.33;;;;;;;9.51;nan;-24082.59;5043595;28;20179;-75
2022/12/02 08:40:49;;;;;;;8.38;3.70;;;;;;;9.71;nan;-24088.41;5034146;28;20195;-76
2022/12/02 08:43:14;;;;;;;4.07;3.10;;;;;;;9.83;nan;-24091.50;5033583;28;20570;-76
2022/12/02 08:45:40;;;;;;;8.60;3.42;;;;;;;10.00;nan;-24096.44;5031656;28;20179;-77
2022/12/02 08:48:06;;;;;;;5.32;3.22;;;;;;;9.81;nan;-24090.94;5033014;28;20198;-75
2022/12/02 08:50:31;;;;;;;7.22;3.30;;;;;;;9.98;nan;-24095.75;5033756;28;20512;-76
2022/12/02 08:52:57;;;;;;;5.97;2.70;;;;;;;9.57;nan;-24084.31;5032942;28;20662;-76
2022/12/02 08:55:22;;;;;;;2.15;1.90;;;;;;;9.77;nan;-24089.94;5032562;28;20198;-76
2022/12/02 08:57:47;;;;;;;5.82;2.42;;;;;;;9.92;nan;-24094.06;5032492;28;20670;-76
2022/12/02 09:00:14;;;;;;;7.13;3.58;;;;;;;10.16;nan;-24100.84;5033634;28;20284;-75
2022/12/02 09:02:39;;;;;;;5.60;3.58;;;;;;;10.10;nan;-24099.13;5033808;28;20597;-76
2022/12/02 09:05:05;;;;;;;5.97;3.35;;;;;;;10.24;nan;-24103.09;5033613;28;20174;-76
2022/12/02 09:07:30;;;;;;;5.63;3.67;;;;;;;10.32;nan;-24105.22;5032397;28;20183;-76
2022/12/02 09:09:56;;;;;;;5.72;3.78;;;;;;;10.50;nan;-24110.28;5032714;28;20175;-74
2022/12/02 09:12:21;;;;;;;4.80;2.70;;;;;;;10.62;nan;-24113.69;5033416;28;20241;-77
2022/12/02 09:14:47;;;;;;;6.03;3.88;;;;;;;10.62;nan;-24113.81;5033725;28;20167;-76
2022/12/02 09:17:12;;;;;;;5.40;3.00;;;;;;;10.46;nan;-24109.31;5034031;28;20183;-76
2022/12/02 09:19:37;;;;;;;5.35;2.88;;;;;;;10.72;nan;-24116.34;5031992;28;20207;-76
2022/12/02 09:22:03;;;;;;;5.57;3.20;;;;;;;11.03;nan;-24125.25;5033483;28;20608;-76
2022/12/02 09:24:28;;;;;;;4.85;3.00;;;;;;;10.89;nan;-24121.28;5033390;28;20175;-77
2022/12/02 09:26:53;;;;;;;7.00;3.10;;;;;;;10.96;nan;-24123.25;5032051;28;20179;-75
2022/12/02 09:29:19;;;;;;;4.32;2.95;;;;;;;10.84;nan;-24119.88;5033524;28;20171;-75
2022/12/02 09:31:44;;;;;;;8.13;3.60;;;;;;;11.26;nan;-24131.59;5032826;28;20175;-75
2022/12/02 09:34:10;;;;;;;5.18;2.90;;;;;;;11.40;nan;-24135.38;5033648;28;20309;-76
2022/12/02 09:36:35;;;;;;;8.63;3.90;;;;;;;11.61;nan;-24141.16;5033190;28;20159;-76
2022/12/02 09:39:00;;;;;;;4.95;2.72;;;;;;;11.59;nan;-24140.75;5032176;28;20624;-76
2022/12/02 09:41:26;;;;;;;4.70;3.08;;;;;;;11.64;nan;-24142.16;5033672;28;20258;-74
2022/12/02 09:43:52;;;;;;;6.68;3.35;;;;;;;11.94;nan;-24150.59;5033113;28;20175;-76
2022/12/02 09:46:18;;;;;;;4.18;2.72;;;;;;;12.00;nan;-24152.16;5032889;28;20187;-76
2022/12/02 09:48:43;;;;;;;3.40;2.33;;;;;;;11.99;nan;-24151.88;5031249;28;20184;-74
2022/12/02 09:51:09;;;;;;;5.47;2.92;;;;;;;11.81;nan;-24146.94;5031987;28;20629;-75
2022/12/02 09:53:40;;;;;;;2.97;2.00;;;;;;;11.71;nan;-24144.13;5033983;28;20175;-77
2022/12/02 09:56:18;;;;;;;3.83;2.58;;;;;;;12.12;nan;-24155.38;5037775;28;20654;-76
2022/12/02 09:58:47;;;;;;;4.43;2.08;;;;;;;11.55;nan;-24139.63;5032707;28;20277;-75
2022/12/02 10:01:13;;;;;;;3.10;2.45;;;;;;;11.67;nan;-24142.84;5032478;28;20187;-76
2022/12/02 10:03:39;;;;;;;3.35;2.45;;;;;;;11.13;nan;-24127.78;5031188;28;20183;-77
2022/12/02 10:06:07;;;;;;;3.08;2.60;;;;;;;11.29;nan;-24132.44;5032561;28;20564;-77
2022/12/02 10:08:33;;;;;;;3.63;2.13;;;;;;;11.44;nan;-24136.50;5032683;28;20221;-76
2022/12/02 10:10:59;;;;;;;2.45;1.85;;;;;;;11.87;nan;-24148.50;5032958;28;20254;-76
2022/12/02 10:13:26;;;;;;;3.17;1.83;;;;;;;11.65;nan;-24142.44;5030970;28;20202;-77
2022/12/02 10:15:53;;;;;;;2.90;1.77;;;;;;;11.51;nan;-24138.63;5032625;28;20179;-76
2022/12/02 10:18:21;;;;;;;3.00;2.05;;;;;;;11.71;nan;-24143.97;5030880;28;20182;-75
2022/12/02 10:20:46;;;;;;;4.20;1.85;;;;;;;11.65;nan;-24142.28;5032694;28;20203;-76
2022/12/02 10:23:18;;;;;;;2.90;2.30;;;;;;;11.83;nan;-24147.50;5032013;28;20658;-77
2022/12/02 10:25:48;;;;;;;3.45;1.90;;;;;;;11.50;nan;-24138.34;5030735;28;20171;-76
2022/12/02 10:28:21;;;;;;;2.33;1.75;;;;;;;11.44;nan;-24136.66;5032658;28;20253;-76
2022/12/02 10:31:13;;;;;;;3.67;1.95;;;;;;;11.67;nan;-24143.00;5031240;28;20203;-77
2022/12/02 10:33:59;;;;;;;3.00;2.08;;;;;;;11.70;nan;-24143.69;5030753;28;20191;-75
2022/12/02 10:36:36;;;;;;;4.50;2.17;;;;;;;11.61;nan;-24141.16;5031110;28;20163;-77
2022/12/02 10:39:19;;;;;;;1.90;1.60;;;;;;;11.60;nan;-24141.03;5031482;28;20186;-78
2022/12/02 10:42:06;;;;;;;2.47;2.10;;;;;;;11.51;nan;-24138.63;5031673;28;20187;-76
2022/12/02 10:44:43;;;;;;;2.17;1.90;;;;;;;11.47;nan;-24137.50;5029751;28;20191;-76
2022/12/02 10:47:20;;;;;;;2.38;2.10;;;;;;;11.67;nan;-24142.84;5031910;28;20646;-78
2022/12/02 10:49:57;;;;;;;2.33;1.90;;;;;;;11.69;nan;-24143.56;5031314;28;20666;-76
2022/12/02 10:52:31;;;;;;;2.47;1.80;;;;;;;11.44;nan;-24136.66;5030101;28;20205;-75
2022/12/02 10:54:58;;;;;;;2.65;1.90;;;;;;;11.42;nan;-24135.97;5031634;28;20203;-77
2022/12/02 10:57:27;;;;;;;6.90;2.55;;;;;;;11.70;nan;-24143.69;5030228;28;20182;-78
2022/12/02 10:59:54;;;;;;;2.80;1.80;;;;;;;11.72;nan;-24144.25;5031668;28;20199;-77
2022/12/02 11:02:21;;;;;;;3.08;2.10;;;;;;;11.75;nan;-24145.25;5029931;28;20215;-76
2022/12/02 11:04:48;;;;;;;3.97;2.05;;;;;;;11.47;nan;-24137.34;5030054;28;20183;-77
2022/12/02 11:07:15;;;;;;;2.63;1.90;;;;;;;11.36;nan;-24134.41;5031548;28;20667;-77
2022/12/02 11:09:46;;;;;;;3.17;2.03;;;;;;;11.26;nan;-24131.44;5031432;28;20164;-76
2022/12/02 11:12:30;;;;;;;2.90;2.00;;;;;;;11.79;nan;-24146.38;5030462;28;20564;-76
2022/12/02 11:14:56;;;;;;;1.83;1.70;;;;;;;11.40;nan;-24135.53;5032218;28;20164;-76
2022/12/02 11:17:46;;;;;;;3.67;2.40;;;;;;;11.72;nan;-24144.25;5032026;28;20621;-76
2022/12/02 11:20:32;;;;;;;4.55;2.40;;;;;;;11.79;nan;-24146.38;5031720;28;20283;-76
2022/12/02 11:22:58;;;;;;;4.00;2.17;;;;;;;11.94;nan;-24150.59;5029572;28;20214;-76
2022/12/02 11:25:41;;;;;;;3.08;2.38;;;;;;;11.94;nan;-24150.47;5031204;28;20218;-76
2022/12/02 11:28:16;;;;;;;3.17;2.10;;;;;;;12.01;nan;-24152.28;5031415;28;20175;-77
2022/12/02 11:30:42;;;;;;;2.83;2.22;;;;;;;11.93;nan;-24150.31;5030303;28;20273;-76
2022/12/02 11:33:12;;;;;;;3.38;1.65;;;;;;;12.05;nan;-24153.56;5030078;28;20541;-76
2022/12/02 11:36:11;;;;;;;2.28;1.85;;;;;;;12.13;nan;-24155.66;5031187;28;20663;-76
2022/12/02 11:39:07;;;;;;;2.08;1.55;;;;;;;11.98;nan;-24151.59;5031855;28;20175;-76
2022/12/02 11:41:47;;;;;;;1.70;1.60;;;;;;;11.84;nan;-24147.78;5030387;28;20194;-76
2022/12/02 11:44:27;;;;;;;3.97;1.95;;;;;;;11.70;nan;-24143.84;5030533;28;20175;-76
2022/12/02 11:47:01;;;;;;;1.85;1.63;;;;;;;11.71;nan;-24143.97;5031037;28;20175;-76
2022/12/02 11:49:34;;;;;;;3.47;2.13;;;;;;;11.59;nan;-24140.75;5034128;28;20174;-77
2022/12/02 11:52:10;;;;;;;2.10;1.77;;;;;;;11.82;nan;-24147.22;5020893;28;20700;-74
2022/12/02 11:54:43;;;;;;;1.45;1.35;;;;;;;11.82;nan;-24147.22;5031011;28;20270;-76
2022/12/02 11:57:19;;;;;;;1.65;1.50;;;;;;;11.78;nan;-24145.97;5028967;28;20274;-77